Time;durP1;ratioP1;P1;durP2;ratioP2;P2;SDS_P1;SDS_P2;PMS_P1;PMS_P2;Temp;Humidity;BMP_temperature;BMP_pressure;BME280_temperature;BME280_humidity;BME280_pressure;Samples;Min_cycle;Max_cycle;Signal;HPM_P1;HPM_P2
2023/08/02 00:00:09;;;;;;;7.07;3.03;;;;;;;14.88;97.42;99856.91;4924955;29;20047;-77
2023/08/02 00:02:37;;;;;;;5.68;2.88;;;;;;;14.87;97.59;99860.72;4922626;29;20057;-76
2023/08/02 00:05:03;;;;;;;7.18;3.00;;;;;;;14.88;97.81;99851.50;4900015;29;20509;-74
2023/08/02 00:07:29;;;;;;;;;;;;;;;14.87;98.48;99852.63;4924834;29;20099;-75
2023/08/02 00:09:55;;;;;;;7.28;3.28;;;;;;;14.87;98.81;99860.72;4923134;29;19925;-76
2023/08/02 00:12:20;;;;;;;11.98;4.35;;;;;;;14.88;98.34;99861.50;4922092;29;20442;-76
2023/08/02 00:14:47;;;;;;;5.68;3.15;;;;;;;14.88;98.40;99854.22;4901442;29;20052;-76
2023/08/02 00:17:13;;;;;;;8.75;4.22;;;;;;;14.87;98.31;99858.03;4921445;29;20042;-76
2023/08/02 00:19:38;;;;;;;5.28;3.35;;;;;;;14.84;97.84;99855.97;4923403;29;20048;-75
2023/08/02 00:22:03;;;;;;;;;;;;;;;14.86;97.62;99853.75;4920984;29;20035;-78
2023/08/02 00:24:29;;;;;;;7.05;3.95;;;;;;;14.88;98.14;99856.91;4924451;29;19976;-76
2023/08/02 00:26:55;;;;;;;5.40;3.38;;;;;;;14.89;98.07;99853.09;4924170;29;20167;-76
2023/08/02 00:29:20;;;;;;;6.85;3.75;;;;;;;14.87;97.31;99854.53;4903803;29;20391;-76
2023/08/02 00:31:46;;;;;;;7.22;3.50;;;;;;;14.89;97.59;99852.31;4922508;29;20088;-76
2023/08/02 00:34:12;;;;;;;6.50;3.92;;;;;;;14.84;96.85;99844.41;4921340;29;20078;-75
2023/08/02 00:36:37;;;;;;;;;;;;;;;14.84;96.91;99849.78;4907876;29;20036;-75
2023/08/02 00:39:03;;;;;;;5.13;3.75;;;;;;;14.86;97.39;99851.06;4907107;29;20425;-76
2023/08/02 00:41:30;;;;;;;6.15;3.70;;;;;;;14.86;97.40;99850.25;4922633;29;20051;-77
2023/08/02 00:43:56;;;;;;;5.80;4.28;;;;;;;14.82;96.71;99852.78;4923725;29;20490;-77
2023/08/02 00:46:21;;;;;;;6.70;3.70;;;;;;;14.85;97.56;99852.16;4891615;29;20031;-76
2023/08/02 00:48:47;;;;;;;8.90;3.90;;;;;;;14.86;97.91;99858.34;4924195;29;20032;-75
2023/08/02 00:51:15;;;;;;;7.55;4.13;;;;;;;14.83;97.89;99854.38;4909785;29;20770;-77
2023/08/02 00:53:43;;;;;;;6.15;3.58;;;;;;;14.84;98.59;99852.50;4926795;29;20083;-75
2023/08/02 00:56:09;;;;;;;7.03;4.53;;;;;;;14.83;98.51;99856.28;4921082;29;20578;-76
2023/08/02 00:58:35;;;;;;;5.50;3.60;;;;;;;14.86;98.52;99852.97;4921907;29;20039;-77
2023/08/02 01:01:06;;;;;;;;;;;;;;;14.82;98.42;99850.09;4907969;29;20028;-77
2023/08/02 01:03:45;;;;;;;8.50;4.85;;;;;;;14.82;98.16;99854.69;4924679;29;21143;-76
2023/08/02 01:06:57;;;;;;;5.45;4.05;;;;;;;14.84;98.83;99849.78;4923587;29;20420;-76
2023/08/02 01:09:42;;;;;;;8.95;4.93;;;;;;;14.80;97.28;99854.22;4903800;29;20409;-77
2023/08/02 01:12:10;;;;;;;7.80;4.43;;;;;;;14.81;97.46;99851.22;4921068;29;20035;-77
2023/08/02 01:14:47;;;;;;;5.07;3.67;;;;;;;14.84;97.03;99853.28;4921454;29;20130;-76
2023/08/02 01:17:13;;;;;;;6.97;4.82;;;;;;;14.84;97.14;99850.59;4918353;29;20398;-77
2023/08/02 01:19:40;;;;;;;6.05;3.95;;;;;;;14.83;97.19;99846.28;4923146;29;20044;-74
2023/08/02 01:22:05;;;;;;;5.68;4.55;;;;;;;14.85;96.63;99854.06;4894832;29;20118;-75
2023/08/02 01:24:32;;;;;;;;;;;;;;;14.85;96.69;99840.59;4905562;29;20981;-76
2023/08/02 01:27:03;;;;;;;6.63;3.95;;;;;;;14.86;96.73;99842.97;4923419;29;19921;-75
2023/08/02 01:29:30;;;;;;;7.78;4.50;;;;;;;14.88;97.11;99843.44;4923512;29;20043;-75
2023/08/02 01:31:57;;;;;;;6.95;3.90;;;;;;;14.90;97.50;99838.53;4925724;29;20060;-75
2023/08/02 01:34:23;;;;;;;8.57;4.80;;;;;;;14.86;96.50;99842.97;4907793;29;20094;-75
2023/08/02 01:36:49;;;;;;;9.20;5.68;;;;;;;14.90;97.44;99843.09;4929630;29;21258;-77
2023/08/02 01:39:16;;;;;;;9.30;5.40;;;;;;;14.89;97.83;99839.63;4930798;29;20043;-75
2023/08/02 01:41:42;;;;;;;6.53;4.80;;;;;;;14.89;97.53;99838.81;4927429;29;20099;-76
2023/08/02 01:44:08;;;;;;;;;;;;;;;14.87;96.42;99838.34;4908825;29;20143;-75
2023/08/02 01:46:33;;;;;;;8.07;5.07;;;;;;;14.90;96.60;99837.72;4924362;29;19919;-77
2023/08/02 01:48:59;;;;;;;;;;;;;;;14.88;97.40;99840.72;4924948;29;20039;-75
2023/08/02 01:51:25;;;;;;;6.47;4.57;;;;;;;14.88;96.75;99829.94;4927998;29;19914;-75
2023/08/02 01:53:50;;;;;;;;;;;;;;;14.87;95.83;99833.75;4925229;29;20066;-76
2023/08/02 01:56:17;;;;;;;8.45;4.75;;;;;;;14.88;95.94;99826.47;4921863;29;20045;-75
2023/08/02 01:58:43;;;;;;;8.73;4.75;;;;;;;14.88;95.49;99824.56;4917645;29;20060;-76
2023/08/02 02:01:09;;;;;;;7.38;4.75;;;;;;;14.88;95.64;99818.38;4908982;29;20429;-77
2023/08/02 02:03:35;;;;;;;;;;;;;;;14.89;95.65;99825.34;4927596;29;20063;-74
2023/08/02 02:06:00;;;;;;;7.15;4.72;;;;;;;14.87;95.75;99817.59;4931034;29;19923;-77
2023/08/02 02:08:26;;;;;;;5.95;4.25;;;;;;;14.87;96.28;99822.19;4894807;29;20032;-74
2023/08/02 02:10:52;;;;;;;;;;;;;;;14.90;96.98;99830.44;4907959;29;20094;-76
2023/08/02 02:13:19;;;;;;;6.63;5.00;;;;;;;14.88;97.48;99821.06;4927761;29;20014;-76
2023/08/02 02:15:45;;;;;;;8.90;4.95;;;;;;;14.84;96.73;99823.63;4938721;28;20035;-77
2023/08/02 02:18:10;;;;;;;8.13;5.32;;;;;;;14.83;96.98;99816.63;4927141;29;20040;-76
2023/08/02 02:20:36;;;;;;;7.00;5.85;;;;;;;14.84;96.66;99815.53;4923253;29;20039;-76
2023/08/02 02:23:02;;;;;;;;;;;;;;;14.81;96.22;99818.06;4926044;29;20035;-77
2023/08/02 02:25:27;;;;;;;7.70;4.88;;;;;;;14.82;96.52;99816.94;4927019;29;20410;-77
2023/08/02 02:27:53;;;;;;;;;;;;;;;14.82;96.52;99816.94;4922118;29;20032;-77
2023/08/02 02:30:19;;;;;;;10.88;5.65;;;;;;;14.82;97.41;99819.66;4929103;29;19965;-77
2023/08/02 02:32:44;;;;;;;10.25;5.47;;;;;;;14.81;97.31;99816.16;4912609;29;20409;-77
2023/08/02 02:35:13;;;;;;;;;;;;;;;14.82;97.18;99825.03;4906764;29;20040;-76
2023/08/02 02:37:40;;;;;;;9.20;4.85;;;;;;;14.82;97.75;99817.75;4933240;29;21397;-77
2023/08/02 02:40:07;;;;;;;7.20;4.57;;;;;;;14.81;97.45;99813.47;4942262;28;20040;-77
2023/08/02 02:42:33;;;;;;;6.15;4.43;;;;;;;14.81;97.57;99818.06;4926689;29;21326;-79
2023/08/02 02:45:00;;;;;;;7.75;4.57;;;;;;;14.81;97.85;99808.09;4928252;29;20031;-76
2023/08/02 02:47:26;;;;;;;9.10;4.80;;;;;;;14.81;98.59;99810.78;4895107;29;20462;-76
2023/08/02 02:49:51;;;;;;;;;;;;;;;14.83;98.52;99805.84;4912276;29;20078;-76
2023/08/02 02:52:17;;;;;;;6.55;3.83;;;;;;;14.82;98.67;99804.25;4923572;29;19921;-77
2023/08/02 02:54:43;;;;;;;6.40;4.65;;;;;;;14.82;98.76;99804.25;4941320;29;20061;-77
2023/08/02 02:57:09;;;;;;;6.13;4.47;;;;;;;14.78;98.51;99808.72;4911272;29;20078;-78
2023/08/02 02:59:35;;;;;;;4.65;3.83;;;;;;;14.80;98.53;99817.28;4925211;29;20040;-76
2023/08/02 03:02:01;;;;;;;7.13;4.90;;;;;;;14.79;98.27;99818.41;4927431;29;20390;-76
2023/08/02 03:04:27;;;;;;;;;;;;;;;14.78;98.46;99819.50;4909914;29;20034;-76
2023/08/02 03:06:53;;;;;;;7.22;5.18;;;;;;;14.76;98.33;99821.72;4910804;29;19918;-77
2023/08/02 03:09:19;;;;;;;;;;;;;;;14.78;98.68;99822.22;4926558;29;20118;-76
2023/08/02 03:11:45;;;;;;;8.18;4.30;;;;;;;14.76;98.57;99819.03;4912265;29;19970;-76
2023/08/02 03:14:11;;;;;;;6.35;4.15;;;;;;;14.77;98.90;99815.25;4924114;29;20104;-76
2023/08/02 03:16:37;;;;;;;;;;;;;;;14.78;98.87;99819.50;4926396;29;20061;-76
2023/08/02 03:19:04;;;;;;;5.45;4.63;;;;;;;14.77;98.89;99820.63;4908851;29;21103;-76
2023/08/02 03:21:29;;;;;;;8.43;5.47;;;;;;;14.77;99.31;99812.53;4926419;29;20047;-75
2023/08/02 03:23:55;;;;;;;;;;;;;;;14.77;99.88;99817.13;4926666;29;20094;-76
2023/08/02 03:26:20;;;;;;;6.35;3.85;;;;;;;14.77;99.50;99814.41;4929866;29;19915;-76
2023/08/02 03:28:46;;;;;;;;;;;;;;;14.77;99.46;99812.53;4909572;29;20036;-74
2023/08/02 03:31:12;;;;;;;5.78;4.47;;;;;;;14.75;99.57;99814.75;4927685;29;19915;-75
2023/08/02 03:33:38;;;;;;;5.45;4.93;;;;;;;14.75;99.17;99814.75;4928250;29;20410;-76
2023/08/02 03:36:03;;;;;;;8.88;5.07;;;;;;;14.76;99.60;99813.63;4926628;29;20036;-76
2023/08/02 03:38:29;;;;;;;9.38;5.55;;;;;;;14.79;99.83;99815.69;4926072;29;20035;-75
2023/08/02 03:40:54;;;;;;;9.82;5.45;;;;;;;14.73;99.42;99812.38;4927945;29;20094;-75
2023/08/02 03:43:20;;;;;;;;;;;;;;;14.72;99.51;99820.78;4927861;29;20039;-76
2023/08/02 03:45:46;;;;;;;7.05;5.72;;;;;;;14.74;99.76;99813.16;4918883;29;20468;-76
2023/08/02 03:48:13;;;;;;;6.03;5.38;;;;;;;14.75;99.71;99822.84;4926789;29;20031;-76
2023/08/02 03:50:38;;;;;;;;;;;;;;;14.68;99.12;99811.75;4922106;29;20034;-76
2023/08/02 03:53:04;;;;;;;6.40;5.55;;;;;;;14.72;99.45;99812.72;4908280;29;20357;-75
2023/08/02 03:55:29;;;;;;;8.02;6.35;;;;;;;14.75;99.99;99826.31;4924950;29;20782;-76
2023/08/02 03:57:55;;;;;;;;;;;;;;;14.77;100.00;99823.31;4923563;29;20099;-76
2023/08/02 04:00:20;;;;;;;7.35;6.00;;;;;;;14.76;100.00;99832.50;4923900;29;19970;-78
2023/08/02 04:02:46;;;;;;;;;;;;;;;14.72;99.95;99826.19;4926379;29;20047;-75
2023/08/02 04:05:11;;;;;;;8.90;6.70;;;;;;;14.73;100.00;99828.56;4930621;28;19915;-76
2023/08/02 04:07:37;;;;;;;9.80;7.55;;;;;;;14.73;100.00;99825.06;4909353;29;20094;-76
2023/08/02 04:10:03;;;;;;;;;;;;;;;14.73;99.98;99825.06;4923563;29;20037;-78
2023/08/02 04:12:29;;;;;;;9.07;8.13;;;;;;;14.73;99.99;99822.38;4936071;29;19929;-76
2023/08/02 04:14:55;;;;;;;12.45;8.63;;;;;;;14.70;99.68;99823.03;4929158;29;20031;-77
2023/08/02 04:17:21;;;;;;;11.75;8.60;;;;;;;14.72;99.81;99820.78;4894302;29;20039;-77
2023/08/02 04:19:46;;;;;;;;;;;;;;;14.70;100.00;99823.03;4893719;29;20071;-76
2023/08/02 04:22:12;;;;;;;11.88;8.60;;;;;;;14.72;100.00;99831.56;4911500;29;19915;-76
2023/08/02 04:24:37;;;;;;;;;;;;;;;14.76;100.00;99832.50;4928123;29;20039;-77
2023/08/02 04:27:04;;;;;;;11.63;9.48;;;;;;;14.73;100.00;99827.75;4910905;29;19918;-76
2023/08/02 04:29:29;;;;;;;14.25;9.00;;;;;;;14.75;100.00;99836.31;4925084;29;20039;-77
2023/08/02 04:31:55;;;;;;;;;;;;;;;14.76;100.00;99837.88;4924731;29;20122;-76
2023/08/02 04:34:20;;;;;;;14.40;9.27;;;;;;;14.77;100.00;99831.41;4924518;29;19915;-75
2023/08/02 04:36:46;;;;;;;;;;;;;;;14.77;100.00;99828.72;4925237;29;20058;-77
2023/08/02 04:39:12;;;;;;;12.18;8.50;;;;;;;14.77;100.00;99830.59;4920970;29;19929;-76
2023/08/02 04:41:38;;;;;;;11.30;9.32;;;;;;;14.78;100.00;99835.69;4925281;29;20032;-75
2023/08/02 04:44:03;;;;;;;;;;;;;;;14.80;100.00;99825.38;4927449;29;20039;-76
2023/08/02 04:46:29;;;;;;;12.13;7.82;;;;;;;14.80;100.00;99822.66;4923082;29;20702;-76
2023/08/02 04:48:54;;;;;;;;;;;;;;;14.83;100.00;99819.31;4926666;29;20028;-76
2023/08/02 04:51:20;;;;;;;16.30;8.45;;;;;;;14.82;100.00;99822.34;4907524;29;19918;-75
2023/08/02 04:53:50;;;;;;;15.50;9.20;;;;;;;14.86;100.00;99824.09;4925601;29;20130;-76
2023/08/02 04:56:16;;;;;;;10.52;7.72;;;;;;;14.86;100.00;99820.59;4924262;29;20053;-76
2023/08/02 04:58:42;;;;;;;12.13;9.00;;;;;;;14.88;100.00;99821.06;4905530;29;20062;-77
2023/08/02 05:01:08;;;;;;;;;;;;;;;14.88;100.00;99827.25;4922859;29;20067;-75
2023/08/02 05:03:35;;;;;;;12.30;8.73;;;;;;;14.89;100.00;99826.13;4923840;29;19990;-76
2023/08/02 05:06:02;;;;;;;12.88;8.98;;;;;;;14.92;100.00;99820.13;4929118;29;20041;-74
2023/08/02 05:08:37;;;;;;;12.50;8.57;;;;;;;14.96;100.00;99815.66;4908259;29;20098;-76
2023/08/02 05:11:06;;;;;;;11.07;8.27;;;;;;;14.99;100.00;99811.53;4922893;29;20047;-76
2023/08/02 05:13:32;;;;;;;10.50;7.97;;;;;;;15.03;100.00;99820.56;4924385;29;20146;-78
2023/08/02 05:15:58;;;;;;;;;;;;;;;15.06;100.00;99821.84;4928088;29;20415;-76
2023/08/02 05:18:24;;;;;;;10.13;7.45;;;;;;;15.06;100.00;99824.53;4933852;29;19974;-75
2023/08/02 05:20:49;;;;;;;;;;;;;;;15.11;100.00;99832.47;4912120;29;20044;-77
2023/08/02 05:23:15;;;;;;;10.77;8.57;;;;;;;15.13;100.00;99824.81;4926757;29;20311;-76
2023/08/02 05:25:41;;;;;;;;;;;;;;;15.16;100.00;99824.16;4928505;29;20044;-76
2023/08/02 05:28:07;;;;;;;10.18;7.45;;;;;;;15.17;100.00;99817.66;4913206;29;19966;-75
2023/08/02 05:30:34;;;;;;;;;;;;;;;15.20;100.00;99814.34;4922552;29;20067;-75
2023/08/02 05:33:00;;;;;;;11.85;7.20;;;;;;;15.22;100.00;99810.19;4912716;29;19925;-77
2023/08/02 05:35:25;;;;;;;11.65;8.85;;;;;;;15.25;100.00;99803.38;4910955;29;20040;-79
2023/08/02 05:37:51;;;;;;;;;;;;;;;15.22;99.35;99795.91;4927602;29;20042;-76
2023/08/02 05:40:17;;;;;;;11.93;6.90;;;;;;;15.23;99.85;99797.50;4927985;29;20360;-76
2023/08/02 05:42:42;;;;;;;;;;;;;;;15.24;99.83;99796.38;4927786;29;20028;-75
2023/08/02 05:45:10;;;;;;;11.35;6.55;;;;;;;15.24;99.44;99801.75;4927987;29;20316;-78
2023/08/02 05:47:35;;;;;;;12.60;7.57;;;;;;;15.28;99.51;99798.09;4912523;29;20139;-76
2023/08/02 05:50:02;;;;;;;10.73;7.57;;;;;;;15.29;99.78;99788.91;4944603;28;20550;-76
2023/08/02 05:52:28;;;;;;;11.75;7.65;;;;;;;15.30;99.78;99787.00;4940867;28;20122;-75
2023/08/02 05:54:55;;;;;;;13.60;8.70;;;;;;;15.30;99.57;99784.28;4913739;29;20122;-76
2023/08/02 05:57:20;;;;;;;9.02;6.82;;;;;;;15.32;99.35;99790.16;4925952;29;20039;-75
2023/08/02 05:59:49;;;;;;;10.23;7.35;;;;;;;15.37;99.06;99798.06;4928098;29;20042;-76
2023/08/02 06:02:15;;;;;;;10.13;7.75;;;;;;;15.37;97.98;99791.88;4928301;29;20043;-77
2023/08/02 06:04:43;;;;;;;10.15;7.10;;;;;;;15.36;97.19;99791.09;4929169;29;20024;-76
2023/08/02 06:07:09;;;;;;;7.55;6.28;;;;;;;15.43;96.83;99798.69;4925655;29;20036;-75
2023/08/02 06:09:34;;;;;;;;;;;;;;;15.43;96.65;99795.97;4929229;29;20110;-76
2023/08/02 06:12:00;;;;;;;11.20;6.95;;;;;;;15.45;96.85;99793.78;4929540;29;19958;-75
2023/08/02 06:14:26;;;;;;;8.73;6.20;;;;;;;15.51;97.03;99795.97;4926819;29;20039;-76
2023/08/02 06:16:52;;;;;;;10.73;7.40;;;;;;;15.54;97.79;99789.13;4926674;29;20028;-76
2023/08/02 06:19:17;;;;;;;;;;;;;;;15.55;97.33;99791.47;4931500;29;20047;-76
2023/08/02 06:21:43;;;;;;;13.02;7.00;;;;;;;15.57;96.91;99785.75;4927272;29;20842;-74
2023/08/02 06:24:09;;;;;;;;;;;;;;;15.57;97.25;99791.94;4912771;29;20042;-75
2023/08/02 06:26:34;;;;;;;9.60;5.75;;;;;;;15.61;96.50;99802.09;4928238;29;19961;-76
2023/08/02 06:29:00;;;;;;;;;;;;;;;15.70;96.96;99789.38;4909892;29;20044;-75
2023/08/02 06:31:26;;;;;;;9.73;5.57;;;;;;;15.78;96.72;99778.53;4926887;29;20029;-74
2023/08/02 06:33:52;;;;;;;10.63;5.70;;;;;;;15.86;96.81;99787.69;4926538;29;20447;-74
2023/08/02 06:36:18;;;;;;;8.73;5.20;;;;;;;15.96;96.71;99775.69;4925142;29;20042;-75
2023/08/02 06:38:44;;;;;;;;;;;;;;;16.08;96.20;99784.66;4926963;29;20039;-76
2023/08/02 06:41:10;;;;;;;10.23;5.50;;;;;;;16.24;96.57;99782.16;4925326;29;19923;-78
2023/08/02 06:43:36;;;;;;;12.95;4.30;;;;;;;16.29;94.20;99783.88;4908198;29;20031;-76
2023/08/02 06:46:01;;;;;;;;;;;;;;;16.42;94.81;99774.69;4929333;29;20115;-75
2023/08/02 06:48:27;;;;;;;10.40;4.15;;;;;;;16.48;93.37;99770.66;4927987;29;19922;-75
2023/08/02 06:50:53;;;;;;;;;;;;;;;16.52;93.90;99771.56;4923225;29;20043;-77
2023/08/02 06:53:18;;;;;;;9.93;3.78;;;;;;;16.44;91.14;99766.25;4911322;29;19925;-75
2023/08/02 06:55:44;;;;;;;;;;;;;;;16.53;92.30;99777.78;4904681;29;20031;-76
2023/08/02 06:58:10;;;;;;;10.63;3.72;;;;;;;16.57;91.28;99774.06;4927345;29;20337;-77
2023/08/02 07:00:35;;;;;;;;;;;;;;;16.56;91.19;99769.78;4916589;29;20028;-76
2023/08/02 07:03:03;;;;;;;7.43;4.40;;;;;;;16.61;92.14;99769.59;4923363;29;20009;-74
2023/08/02 07:05:30;;;;;;;8.48;3.75;;;;;;;16.63;90.49;99766.53;4907588;29;20039;-76
2023/08/02 07:07:57;;;;;;;10.23;4.45;;;;;;;16.72;90.44;99763.78;4925671;29;20114;-75
2023/08/02 07:10:23;;;;;;;9.13;3.50;;;;;;;16.75;89.63;99763.91;4928170;29;20075;-74
2023/08/02 07:12:49;;;;;;;8.52;4.72;;;;;;;16.85;91.92;99746.47;4925819;29;20088;-73
2023/08/02 07:15:15;;;;;;;;;;;;;;;16.94;92.76;99755.28;4925877;29;20721;-75
2023/08/02 07:17:41;;;;;;;9.02;4.13;;;;;;;16.96;92.88;99746.81;4922326;29;19969;-75
2023/08/02 07:20:08;;;;;;;;;;;;;;;16.97;90.42;99746.50;4928610;29;20039;-75
2023/08/02 07:22:33;;;;;;;8.75;3.88;;;;;;;17.01;90.61;99739.28;4926370;29;20001;-75
2023/08/02 07:24:59;;;;;;;;;;;;;;;17.04;86.72;99738.59;4923176;29;20513;-75
2023/08/02 07:27:25;;;;;;;7.47;3.05;;;;;;;17.11;87.97;99738.84;4927082;29;19918;-76
2023/08/02 07:29:51;;;;;;;;;;;;;;;17.09;87.95;99732.19;4926131;29;20042;-75
2023/08/02 07:32:17;;;;;;;10.15;3.33;;;;;;;17.06;87.65;99727.44;4912512;29;19920;-75
2023/08/02 07:34:42;;;;;;;;;;;;;;;16.98;86.83;99731.84;4928401;29;20078;-76
2023/08/02 07:37:08;;;;;;;7.30;3.25;;;;;;;16.98;88.20;99737.25;4925160;29;20312;-76
2023/08/02 07:39:33;;;;;;;;;;;;;;;16.94;88.41;99733.66;4924117;29;20043;-76
2023/08/02 07:41:59;;;;;;;9.55;3.22;;;;;;;16.88;89.02;99730.38;4928093;29;19929;-77
2023/08/02 07:44:24;;;;;;;;;;;;;;;16.88;87.25;99724.16;4928462;29;20032;-76
2023/08/02 07:46:50;;;;;;;8.68;3.38;;;;;;;16.92;88.25;99716.94;4921989;29;19973;-75
2023/08/02 07:49:16;;;;;;;;;;;;;;;16.91;87.87;99712.66;4909508;29;20035;-75
2023/08/02 07:51:42;;;;;;;6.55;3.47;;;;;;;16.93;88.30;99713.13;4909830;29;19918;-77
2023/08/02 07:54:07;;;;;;;;;;;;;;;16.99;88.28;99706.34;4942545;28;20059;-76
2023/08/02 07:56:33;;;;;;;7.43;2.90;;;;;;;17.07;87.06;99715.50;4922726;29;19918;-78
2023/08/02 07:58:59;;;;;;;;;;;;;;;17.10;87.58;99710.22;4925530;29;20035;-76
2023/08/02 08:01:24;;;;;;;9.95;3.63;;;;;;;17.12;88.34;99702.53;4928033;29;20391;-76
2023/08/02 08:03:50;;;;;;;;;;;;;;;17.14;89.32;99708.41;4927420;29;20572;-75
2023/08/02 08:06:19;;;;;;;8.18;3.33;;;;;;;17.03;84.43;99701.88;4925336;29;20006;-75
2023/08/02 08:08:45;;;;;;;8.48;3.55;;;;;;;17.11;86.34;99705.59;4924774;29;20501;-75
2023/08/02 08:11:11;;;;;;;;;;;;;;;17.19;87.73;99710.88;4927114;29;20070;-75
2023/08/02 08:13:36;;;;;;;8.73;3.40;;;;;;;17.34;88.20;99697.78;4923201;29;19927;-77
2023/08/02 08:16:02;;;;;;;;;;;;;;;17.50;85.94;99684.38;4924697;29;20043;-75
2023/08/02 08:18:32;;;;;;;8.05;2.65;;;;;;;17.66;84.00;99686.00;4923562;29;19966;-76
2023/08/02 08:20:58;;;;;;;6.88;3.72;;;;;;;17.65;84.10;99676.31;4921446;29;20167;-75
2023/08/02 08:23:25;;;;;;;8.45;3.33;;;;;;;17.64;83.15;99674.75;4921476;29;20091;-75
2023/08/02 08:25:50;;;;;;;6.53;3.08;;;;;;;17.76;84.29;99675.88;4923548;29;20051;-76
2023/08/02 08:28:16;;;;;;;;;;;;;;;17.80;81.63;99682.94;4911454;29;20118;-76
2023/08/02 08:30:42;;;;;;;7.38;2.78;;;;;;;17.79;81.68;99669.75;4908906;29;19919;-75
2023/08/02 08:33:08;;;;;;;;;;;;;;;17.94;82.61;99679.84;4926889;29;20083;-75
2023/08/02 08:35:34;;;;;;;8.90;3.35;;;;;;;18.17;84.18;99685.53;4913326;29;19918;-75
2023/08/02 08:38:00;;;;;;;;;;;;;;;18.20;82.71;99691.03;4925590;29;20067;-76
2023/08/02 08:40:25;;;;;;;8.57;3.17;;;;;;;18.25;81.89;99685.38;4913752;29;20482;-75
2023/08/02 08:42:53;;;;;;;7.72;3.47;;;;;;;18.35;79.65;99689.50;4930385;29;20027;-76
2023/08/02 08:45:22;;;;;;;7.30;3.20;;;;;;;18.50;81.18;99687.97;4927096;29;20039;-75
2023/08/02 08:47:48;;;;;;;10.80;3.63;;;;;;;18.58;75.77;99668.03;4924063;29;20043;-76
2023/08/02 08:50:15;;;;;;;6.68;2.60;;;;;;;18.72;75.87;99671.13;4911186;29;20043;-75
2023/08/02 08:52:45;;;;;;;5.15;3.10;;;;;;;18.82;78.14;99667.88;4929138;29;20031;-77
2023/08/02 08:55:13;;;;;;;7.72;2.80;;;;;;;18.79;75.19;99673.22;4910236;29;20138;-75
2023/08/02 08:57:40;;;;;;;9.10;3.00;;;;;;;18.78;78.36;99661.59;4929399;29;20506;-77
2023/08/02 09:00:08;;;;;;;9.18;3.40;;;;;;;18.73;76.47;99647.50;4914623;29;20039;-76
2023/08/02 09:02:34;;;;;;;10.02;3.70;;;;;;;18.74;78.06;99640.94;4924253;29;20050;-77
2023/08/02 09:05:05;;;;;;;9.30;3.05;;;;;;;18.70;74.95;99642.78;4925297;29;20043;-75
2023/08/02 09:07:34;;;;;;;5.78;2.47;;;;;;;18.72;78.11;99635.88;4909682;29;20090;-74
2023/08/02 09:10:00;;;;;;;8.32;3.70;;;;;;;18.73;77.33;99637.44;4928584;29;20095;-74
2023/08/02 09:12:27;;;;;;;10.60;3.50;;;;;;;18.69;76.43;99631.13;4930836;29;20066;-75
2023/08/02 09:15:04;;;;;;;6.03;3.60;;;;;;;18.72;76.91;99624.25;4933462;29;20044;-77
2023/08/02 09:17:50;;;;;;;7.32;3.10;;;;;;;18.72;75.05;99626.94;4911902;29;20047;-75
2023/08/02 09:20:18;;;;;;;7.00;3.15;;;;;;;18.76;76.13;99625.91;4921992;29;20104;-76
2023/08/02 09:22:45;;;;;;;7.45;2.90;;;;;;;18.79;77.25;99625.19;4928545;29;20065;-76
2023/08/02 09:25:31;;;;;;;7.45;3.15;;;;;;;18.70;76.22;99621.88;4911927;29;20057;-75
2023/08/02 09:27:59;;;;;;;7.32;3.50;;;;;;;18.61;75.76;99620.44;4943297;29;20513;-75
2023/08/02 09:30:34;;;;;;;8.73;2.85;;;;;;;18.52;75.63;99618.69;4926568;29;20114;-76
2023/08/02 09:33:08;;;;;;;9.35;3.20;;;;;;;18.48;77.64;99611.59;4911947;29;20086;-75
2023/08/02 09:35:47;;;;;;;6.97;3.05;;;;;;;18.47;76.70;99612.75;4926797;28;20050;-76
2023/08/02 09:38:13;;;;;;;8.63;3.38;;;;;;;18.41;77.48;99603.28;4930000;29;20039;-76
2023/08/02 09:40:40;;;;;;;5.32;3.72;;;;;;;18.36;77.80;99590.03;4930412;29;20501;-77
2023/08/02 09:43:09;;;;;;;10.50;3.33;;;;;;;18.36;76.79;99600.88;4929251;29;20589;-76
2023/08/02 09:45:36;;;;;;;7.45;3.30;;;;;;;18.31;75.94;99580.22;4931178;29;20040;-75
2023/08/02 09:48:02;;;;;;;8.60;3.33;;;;;;;18.32;77.15;99581.00;4925239;29;20082;-76
2023/08/02 09:50:28;;;;;;;7.28;3.33;;;;;;;18.35;78.04;99572.16;4926728;29;20063;-76
2023/08/02 09:52:54;;;;;;;8.93;3.38;;;;;;;18.35;77.04;99578.38;4927502;29;20119;-76
2023/08/02 09:55:20;;;;;;;7.47;3.33;;;;;;;18.37;78.55;99567.97;4928872;29;20066;-76
2023/08/02 09:57:48;;;;;;;6.40;3.65;;;;;;;18.32;75.29;99562.03;4930557;29;20031;-76
2023/08/02 10:00:15;;;;;;;6.50;3.25;;;;;;;18.32;76.57;99562.81;4925528;29;20075;-77
2023/08/02 10:02:46;;;;;;;6.03;2.80;;;;;;;18.32;75.94;99553.91;4924840;29;20688;-74
2023/08/02 10:05:13;;;;;;;6.35;2.72;;;;;;;18.32;77.01;99549.28;4923430;29;20494;-75
2023/08/02 10:07:50;;;;;;;7.53;3.13;;;;;;;18.33;79.01;99544.63;4913826;29;20118;-76
2023/08/02 10:10:24;;;;;;;8.23;3.30;;;;;;;18.34;78.28;99538.06;4913523;29;20521;-78
2023/08/02 10:13:08;;;;;;;6.88;3.00;;;;;;;18.35;77.43;99528.78;4923722;29;20035;-75
2023/08/02 10:15:35;;;;;;;;;;;;;;;18.34;75.80;99538.06;4932053;29;20035;-76
2023/08/02 10:18:01;;;;;;;7.72;3.67;;;;;;;18.41;76.78;99530.09;4928513;29;20420;-77
2023/08/02 10:20:29;;;;;;;7.97;3.00;;;;;;;18.45;76.29;99534.50;4928657;29;20103;-76
2023/08/02 10:22:56;;;;;;;6.85;3.65;;;;;;;18.51;76.86;99518.75;4928204;29;20044;-74
2023/08/02 10:25:23;;;;;;;6.40;2.47;;;;;;;18.50;76.78;99522.59;4921659;29;20199;-76
2023/08/02 10:27:49;;;;;;;4.93;3.38;;;;;;;18.53;78.80;99513.75;4925753;29;20060;-77
2023/08/02 10:30:16;;;;;;;7.65;3.22;;;;;;;18.47;76.55;99515.16;4938807;29;20047;-77
2023/08/02 10:32:42;;;;;;;7.40;2.90;;;;;;;18.47;77.95;99515.16;4924185;29;20051;-77
2023/08/02 10:35:08;;;;;;;6.97;3.00;;;;;;;18.49;77.92;99515.56;4927062;29;20859;-77
2023/08/02 10:37:54;;;;;;;7.18;3.13;;;;;;;18.42;75.40;99512.69;4926467;29;20044;-75
2023/08/02 10:40:21;;;;;;;6.78;2.60;;;;;;;18.34;75.31;99511.75;4896415;29;20055;-77
2023/08/02 10:43:05;;;;;;;9.05;3.03;;;;;;;18.29;75.76;99498.50;4912777;29;20078;-76
2023/08/02 10:45:31;;;;;;;5.88;3.00;;;;;;;18.29;76.79;99501.19;4928055;29;20115;-78
2023/08/02 10:48:23;;;;;;;5.35;2.88;;;;;;;18.30;77.32;99480.31;4927788;29;20054;-77
2023/08/02 10:50:48;;;;;;;5.57;2.95;;;;;;;18.26;76.39;99472.06;4923300;29;20155;-78
2023/08/02 10:53:14;;;;;;;;;;;;;;;18.27;77.04;99471.72;4926587;29;20450;-76
2023/08/02 10:56:08;;;;;;;6.57;3.10;;;;;;;18.27;77.64;99463.59;4912126;29;20135;-75
2023/08/02 10:58:51;;;;;;;6.25;2.10;;;;;;;18.24;76.86;99456.19;4926990;29;20039;-77
2023/08/02 11:01:17;;;;;;;5.93;3.10;;;;;;;18.21;76.49;99462.28;4924127;29;20479;-76
2023/08/02 11:03:43;;;;;;;4.90;2.70;;;;;;;18.20;76.62;99463.41;4927078;29;20039;-75
2023/08/02 11:06:23;;;;;;;8.65;3.17;;;;;;;18.23;79.29;99462.75;4927763;29;20114;-76
2023/08/02 11:08:50;;;;;;;7.22;2.92;;;;;;;18.23;77.74;99457.31;4924891;29;20173;-77
2023/08/02 11:11:27;;;;;;;7.43;2.90;;;;;;;18.31;78.79;99441.22;4926538;29;20059;-75
2023/08/02 11:13:53;;;;;;;5.78;2.88;;;;;;;18.31;76.99;99439.28;4927433;29;20035;-75
2023/08/02 11:16:19;;;;;;;;;;;;;;;18.32;75.65;99445.50;4927720;29;20065;-77
2023/08/02 11:18:44;;;;;;;5.82;2.70;;;;;;;18.34;77.29;99437.78;4926153;29;19981;-75
2023/08/02 11:21:13;;;;;;;5.75;3.15;;;;;;;18.36;77.99;99433.59;4925772;29;20043;-77
2023/08/02 11:23:39;;;;;;;6.25;3.00;;;;;;;18.39;76.61;99432.09;4911569;29;20027;-75
2023/08/02 11:26:13;;;;;;;7.13;3.22;;;;;;;18.43;76.71;99430.28;4921839;29;20047;-75
2023/08/02 11:28:45;;;;;;;6.10;2.45;;;;;;;18.51;77.01;99432.78;4924460;29;20036;-76
2023/08/02 11:31:11;;;;;;;5.93;3.03;;;;;;;18.51;77.43;99426.56;4926935;29;20039;-75
2023/08/02 11:33:38;;;;;;;8.30;3.33;;;;;;;18.51;75.65;99429.28;4907962;29;20036;-75
2023/08/02 11:36:07;;;;;;;4.55;2.92;;;;;;;18.50;75.72;99425.00;4926778;29;20126;-77
2023/08/02 11:38:35;;;;;;;5.65;2.70;;;;;;;18.46;75.61;99416.00;4909735;29;20418;-78
2023/08/02 11:41:01;;;;;;;3.95;2.85;;;;;;;18.45;74.66;99403.59;4908923;29;20035;-74
2023/08/02 11:43:36;;;;;;;;;;;;;;;18.42;75.60;99409.69;4926452;29;20672;-77
2023/08/02 11:46:12;;;;;;;5.68;2.67;;;;;;;18.40;73.97;99403.84;4921065;29;19977;-75